createdAt,value
2023-02-06T00:03:55.778Z,5.28
2023-02-06T00:08:59.783Z,5.36
2023-02-06T00:14:02.410Z,5.35
2023-02-06T00:19:06.335Z,5.28
2023-02-06T00:24:09.061Z,4.99
2023-02-06T00:29:11.605Z,4.96
2023-02-06T00:34:15.465Z,5.03
2023-02-06T00:39:18.019Z,4.61
2023-02-06T00:44:21.588Z,4.32
2023-02-06T00:49:26.549Z,4.21
2023-02-06T00:54:29.663Z,3.94
2023-02-06T00:59:32.755Z,3.92
2023-02-06T01:04:36.709Z,3.92
2023-02-06T01:09:40.393Z,4.30
2023-02-06T01:14:42.953Z,4.44
2023-02-06T01:19:48.746Z,4.35
2023-02-06T01:24:51.301Z,4.44
2023-02-06T01:29:53.878Z,4.63
2023-02-06T01:34:57.780Z,4.47
2023-02-06T01:40:00.744Z,4.35
2023-02-06T01:45:35.752Z,4.34
2023-02-06T01:50:42.523Z,4.44
2023-02-06T01:55:48.567Z,4.40
2023-02-06T02:06:29.962Z,4.14
2023-02-06T02:11:34.224Z,4.15
2023-02-06T02:16:50.535Z,3.99
2023-02-06T02:22:32.563Z,3.85
2023-02-06T02:27:47.697Z,3.72
2023-02-06T02:33:12.172Z,4.02
2023-02-06T02:38:28.433Z,4.03
2023-02-06T02:43:39.743Z,4.09
2023-02-06T02:48:46.665Z,4.11
2023-02-06T02:53:50.631Z,4.23
2023-02-06T02:58:57.722Z,4.15
2023-02-06T03:04:04.679Z,4.04
2023-02-06T03:09:16.757Z,3.80
2023-02-06T03:14:28.896Z,3.69
2023-02-06T03:19:35.430Z,3.53
2023-02-06T03:24:40.473Z,3.63
2023-02-06T03:29:44.180Z,3.64
2023-02-06T03:34:54.660Z,3.83
2023-02-06T03:40:01.743Z,3.81
2023-02-06T03:45:07.966Z,3.97
2023-02-06T03:50:12.721Z,3.84
2023-02-06T03:55:21.020Z,3.92
2023-02-06T04:00:23.835Z,3.81
2023-02-06T04:05:26.813Z,3.85
2023-02-06T04:10:31.109Z,3.73
2023-02-06T04:15:33.900Z,3.88
2023-02-06T04:20:40.718Z,3.75
2023-02-06T04:25:44.891Z,3.87
2023-02-06T04:30:48.380Z,3.90
2023-02-06T04:35:52.025Z,3.83
2023-02-06T04:40:55.902Z,3.92
2023-02-06T04:45:58.715Z,3.91
2023-02-06T04:51:01.243Z,4.06
2023-02-06T04:56:06.640Z,4.04
2023-02-06T05:01:09.224Z,4.05
2023-02-06T05:06:12.490Z,4.02
2023-02-06T05:11:16.397Z,4.09
2023-02-06T05:16:19.465Z,3.84
2023-02-06T05:21:22.889Z,3.60
2023-02-06T05:26:26.817Z,3.42
2023-02-06T05:31:29.466Z,3.64
2023-02-06T05:36:32.462Z,3.47
2023-02-06T05:41:36.347Z,3.29
2023-02-06T05:46:39.076Z,3.28
2023-02-06T05:51:41.651Z,3.22
2023-02-06T05:56:46.181Z,3.37
2023-02-06T06:01:48.747Z,3.20
2023-02-06T06:06:51.552Z,3.24
2023-02-06T06:11:55.418Z,3.00
2023-02-06T06:16:57.979Z,3.16
2023-02-06T06:22:00.915Z,3.07
2023-02-06T06:27:04.876Z,3.28
2023-02-06T06:32:07.481Z,3.62
2023-02-06T06:37:10.455Z,3.45
2023-02-06T06:42:14.338Z,3.29
2023-02-06T06:47:16.930Z,3.46
2023-02-06T06:52:25.041Z,3.42
2023-02-06T06:57:31.825Z,3.26
2023-02-06T07:02:34.347Z,3.33
2023-02-06T07:07:38.877Z,3.20
2023-02-06T07:12:42.920Z,3.20
2023-02-06T07:17:45.428Z,3.46
2023-02-06T07:22:50.138Z,3.15
2023-02-06T07:27:54.252Z,3.52
2023-02-06T07:32:56.834Z,3.38
2023-02-06T07:37:59.392Z,3.56
2023-02-06T07:43:03.271Z,3.72
2023-02-06T07:48:10.597Z,3.88
2023-02-06T07:53:13.162Z,3.82
2023-02-06T07:58:17.038Z,3.93
2023-02-06T08:03:20.840Z,3.53
2023-02-06T08:08:23.375Z,3.64
2023-02-06T08:13:27.255Z,3.86
2023-02-06T08:18:29.767Z,3.72
2023-02-06T08:23:33.156Z,3.78
2023-02-06T08:28:38.302Z,3.88
2023-02-06T08:33:41.565Z,3.83
2023-02-06T08:38:44.517Z,4.02
2023-02-06T08:43:49.806Z,4.21
2023-02-06T08:48:55.959Z,4.27
2023-02-06T08:53:59.065Z,4.40
2023-02-06T08:59:03.694Z,4.50
2023-02-06T09:04:09.073Z,4.51
2023-02-06T09:09:12.995Z,4.52
2023-02-06T09:14:18.539Z,4.13
2023-02-06T09:19:21.064Z,4.76
2023-02-06T09:24:23.721Z,4.74
2023-02-06T09:29:28.905Z,4.67
2023-02-06T09:34:31.781Z,4.76
2023-02-06T09:39:34.337Z,4.78
2023-02-06T09:44:42.129Z,4.84
2023-02-06T09:49:48.941Z,4.99
2023-02-06T09:55:02.348Z,5.03
2023-02-06T10:00:15.878Z,5.10
2023-02-06T10:05:26.463Z,5.15
2023-02-06T10:10:37.434Z,5.03
2023-02-06T10:15:46.181Z,5.29
2023-02-06T10:20:53.537Z,5.05
2023-02-06T10:26:04.736Z,5.45
2023-02-06T10:31:35.597Z,5.52
2023-02-06T10:36:48.069Z,5.59
2023-02-06T10:42:00.121Z,5.61
2023-02-06T10:47:07.288Z,5.62
2023-02-06T10:52:22.750Z,5.83
2023-02-06T10:57:28.945Z,4.91
2023-02-06T11:02:47.497Z,5.41
2023-02-06T11:07:54.816Z,5.82
2023-02-06T11:13:03.661Z,5.89
2023-02-06T11:18:12.159Z,6.07
2023-02-06T11:23:17.559Z,6.06
2023-02-06T11:28:23.038Z,6.27
2023-02-06T11:33:35.912Z,6.28
2023-02-06T11:38:38.540Z,6.48
2023-02-06T11:43:50.192Z,6.68
2023-02-06T11:49:06.271Z,6.48
2023-02-06T11:54:20.657Z,6.74
2023-02-06T11:59:25.124Z,6.72
2023-02-06T12:04:34.985Z,6.74
2023-02-06T12:09:37.806Z,6.95
2023-02-06T12:14:44.662Z,6.86
2023-02-06T12:19:56.195Z,6.92
2023-02-06T12:25:00.009Z,6.83
2023-02-06T12:30:09.634Z,6.64
2023-02-06T12:35:22.403Z,6.49
2023-02-06T12:40:40.550Z,6.53
2023-02-06T12:45:51.152Z,6.42
2023-02-06T12:57:22.585Z,6.31
2023-02-06T13:02:47.300Z,6.30
2023-02-06T13:07:51.494Z,6.37
2023-02-06T13:12:58.386Z,6.52
2023-02-06T13:18:00.999Z,6.59
2023-02-06T13:23:24.567Z,6.74
2023-02-06T13:29:00.515Z,6.84
2023-02-06T13:34:08.174Z,6.87
2023-02-06T13:39:16.387Z,6.92
2023-02-06T13:44:25.829Z,6.31
2023-02-06T13:49:44.600Z,7.06
2023-02-06T13:54:59.610Z,7.10
2023-02-06T14:00:11.027Z,7.15
2023-02-06T14:05:17.605Z,7.10
2023-02-06T14:10:52.194Z,6.94
2023-02-06T14:16:04.767Z,6.91
2023-02-06T14:21:19.458Z,7.23
2023-02-06T14:26:32.994Z,7.25
2023-02-06T14:31:52.499Z,7.24
2023-02-06T14:37:16.866Z,7.28
2023-02-06T14:42:26.817Z,7.32
2023-02-06T14:47:39.834Z,7.37
2023-02-06T14:52:42.723Z,7.36
2023-02-06T14:57:46.229Z,7.25
2023-02-06T15:03:04.493Z,6.95
2023-02-06T15:08:08.305Z,6.75
2023-02-06T15:13:21.799Z,6.86
2023-02-06T15:18:25.670Z,6.94
2023-02-06T15:23:40.439Z,7.05
2023-02-06T15:28:44.884Z,7.13
2023-02-06T15:33:52.254Z,7.17
2023-02-06T15:38:55.127Z,7.18
2023-02-06T15:44:07.691Z,7.20
2023-02-06T15:49:18.906Z,7.17
2023-02-06T15:54:24.068Z,7.10
2023-02-06T15:59:27.482Z,6.98
2023-02-06T16:04:34.011Z,6.96
2023-02-06T16:09:43.506Z,6.99
2023-02-06T16:14:55.160Z,6.76
2023-02-06T16:20:02.848Z,6.51
2023-02-06T16:25:22.416Z,6.52
2023-02-06T16:30:29.283Z,6.42
2023-02-06T16:35:33.407Z,6.59
2023-02-06T16:40:36.399Z,6.59
2023-02-06T16:45:39.507Z,6.49
2023-02-06T16:50:44.707Z,6.46
2023-02-06T16:55:47.597Z,6.47
2023-02-06T17:00:52.918Z,6.26
2023-02-06T17:05:56.835Z,6.33
2023-02-06T17:10:59.420Z,6.41
2023-02-06T17:16:02.025Z,6.05
2023-02-06T17:21:07.206Z,5.86
2023-02-06T17:26:12.379Z,5.87
2023-02-06T17:31:15.550Z,5.97
2023-02-06T17:36:29.285Z,6.05
2023-02-06T17:41:32.130Z,6.00
2023-02-06T17:46:34.741Z,5.87
2023-02-06T17:51:40.300Z,5.56
2023-02-06T17:56:42.830Z,5.54
2023-02-06T18:01:45.424Z,5.62
2023-02-06T18:06:49.612Z,5.54
2023-02-06T18:11:52.139Z,5.36
2023-02-06T18:16:55.930Z,5.33
2023-02-06T18:22:00.110Z,5.53
2023-02-06T18:27:03.605Z,5.55
2023-02-06T18:32:06.545Z,5.55
2023-02-06T18:37:10.537Z,5.50
2023-02-06T18:42:31.083Z,5.30
2023-02-06T18:47:33.855Z,5.12
2023-02-06T18:52:38.392Z,4.96
2023-02-06T18:57:41.545Z,4.88
2023-02-06T19:02:44.180Z,4.93
2023-02-06T19:07:51.069Z,5.00
2023-02-06T19:12:53.850Z,5.09
2023-02-06T19:17:56.403Z,5.15
2023-02-06T19:23:00.281Z,5.19
2023-02-06T19:28:02.873Z,5.13
2023-02-06T19:33:05.456Z,5.15
2023-02-06T19:38:09.519Z,5.10
2023-02-06T19:43:12.065Z,5.13
2023-02-06T19:48:14.777Z,5.17
2023-02-06T19:53:19.089Z,5.28
2023-02-06T19:58:21.793Z,5.25
2023-02-06T20:03:24.828Z,5.28
2023-02-06T20:08:29.260Z,5.28
2023-02-06T20:13:31.915Z,5.11
2023-02-06T20:18:36.423Z,4.98
2023-02-06T20:23:41.210Z,4.93
2023-02-06T20:28:43.926Z,4.96
2023-02-06T20:33:47.512Z,4.87
2023-02-06T20:38:53.079Z,4.97
2023-02-06T20:43:56.584Z,4.95
2023-02-06T20:49:01.163Z,4.91
2023-02-06T20:54:06.398Z,4.97
2023-02-06T20:59:09.744Z,4.99
2023-02-06T21:04:14.415Z,4.66
2023-02-06T21:09:19.183Z,4.65
2023-02-06T21:14:21.801Z,4.59
2023-02-06T21:19:29.604Z,4.53
2023-02-06T21:24:34.646Z,4.59
2023-02-06T21:29:37.222Z,4.36
2023-02-06T21:34:40.520Z,4.53
2023-02-06T21:39:44.942Z,4.52
2023-02-06T21:44:48.275Z,4.61
2023-02-06T21:49:51.231Z,4.48
2023-02-06T21:54:55.445Z,4.54
2023-02-06T21:59:58.221Z,4.42
2023-02-06T22:05:00.965Z,4.57
2023-02-06T22:10:06.093Z,4.49
2023-02-06T22:15:09.803Z,4.47
2023-02-06T22:20:13.748Z,4.48
2023-02-06T22:25:18.745Z,4.32
2023-02-06T22:30:21.470Z,4.34
2023-02-06T22:35:25.216Z,4.25
2023-02-06T22:40:29.167Z,3.99
2023-02-06T22:45:31.821Z,4.35
2023-02-06T22:50:36.251Z,4.30
2023-02-06T22:55:58.558Z,4.28
2023-02-06T23:01:04.783Z,4.28
2023-02-06T23:06:09.318Z,4.19
2023-02-06T23:11:13.739Z,4.15
2023-02-06T23:16:16.300Z,4.08
2023-02-06T23:21:20.888Z,4.15
2023-02-06T23:26:25.216Z,3.79
2023-02-06T23:31:28.808Z,3.79
2023-02-06T23:36:31.481Z,3.41
2023-02-06T23:41:35.666Z,3.24
2023-02-06T23:46:39.565Z,3.53
2023-02-06T23:51:42.232Z,3.55
2023-02-06T23:56:46.184Z,3.42
